createdAt,value
2018-01-23T00:00:44.304Z,98435.16
2018-01-23T00:03:12.127Z,98435.55
2018-01-23T00:05:39.674Z,98424.52
2018-01-23T00:08:07.387Z,98439.80
2018-01-23T00:10:34.897Z,98453.97
2018-01-23T00:13:02.441Z,98460.56
2018-01-23T00:15:30.111Z,98471.06
2018-01-23T00:17:57.628Z,98472.62
2018-01-23T00:20:25.131Z,98467.47
2018-01-23T00:22:52.651Z,98472.94
2018-01-23T00:25:20.166Z,98457.83
2018-01-23T00:27:47.694Z,98460.40
2018-01-23T00:30:15.210Z,98457.33
2018-01-23T00:32:42.723Z,98473.52
2018-01-23T00:35:10.256Z,98476.47
2018-01-23T00:37:37.762Z,98479.84
2018-01-23T00:40:05.279Z,98479.73
2018-01-23T00:42:32.797Z,98483.55
2018-01-23T00:45:00.333Z,98479.63
2018-01-23T00:47:27.873Z,98482.36
2018-01-23T00:49:55.402Z,98483.24
2018-01-23T00:52:22.921Z,98497.73
2018-01-23T00:54:50.454Z,98494.00
2018-01-23T00:57:17.994Z,98503.69
2018-01-23T00:59:45.625Z,98507.41
2018-01-23T01:02:13.153Z,98509.96
2018-01-23T01:04:40.678Z,98509.24
2018-01-23T01:07:08.172Z,98521.18
2018-01-23T01:09:35.685Z,98521.42
2018-01-23T01:12:03.258Z,98528.25
2018-01-23T01:14:30.771Z,98528.31
2018-01-23T01:16:58.333Z,98535.66
2018-01-23T01:19:25.871Z,98538.84
2018-01-23T01:21:53.391Z,98539.48
2018-01-23T01:24:20.912Z,98555.98
2018-01-23T01:26:48.416Z,98562.28
2018-01-23T01:29:15.939Z,98562.55
2018-01-23T01:31:43.483Z,98565.92
2018-01-23T01:34:11.111Z,98569.19
2018-01-23T01:36:38.632Z,98568.59
2018-01-23T01:39:06.139Z,98561.73
2018-01-23T01:41:33.663Z,98562.23
2018-01-23T01:44:01.192Z,98565.92
2018-01-23T01:46:28.731Z,98569.42
2018-01-23T01:48:56.246Z,98577.53
2018-01-23T01:51:23.773Z,98578.61
2018-01-23T01:53:51.276Z,98579.69
2018-01-23T01:56:18.806Z,98579.02
2018-01-23T01:58:46.351Z,98583.75
2018-01-23T02:01:13.861Z,98587.07
2018-01-23T02:03:41.497Z,98607.66
2018-01-23T02:06:09.001Z,98604.54
2018-01-23T02:08:36.508Z,98603.73
2018-01-23T02:11:04.012Z,98609.23
2018-01-23T02:13:31.512Z,98621.59
2018-01-23T02:15:59.034Z,98616.60
2018-01-23T02:18:26.552Z,98623.71
2018-01-23T02:20:54.156Z,98628.59
2018-01-23T02:23:21.671Z,98622.08
2018-01-23T02:25:49.192Z,98630.45
2018-01-23T02:28:16.716Z,98639.23
2018-01-23T02:30:44.227Z,98641.02
2018-01-23T02:33:11.758Z,98646.45
2018-01-23T02:35:39.288Z,98652.19
2018-01-23T02:38:06.815Z,98653.27
2018-01-23T02:40:34.323Z,98652.30
2018-01-23T02:43:01.838Z,98655.31
2018-01-23T02:45:29.344Z,98646.80
2018-01-23T02:47:56.853Z,98655.20
2018-01-23T02:50:24.388Z,98656.14
2018-01-23T02:52:51.912Z,98650.73
2018-01-23T02:55:19.472Z,98653.01
2018-01-23T02:57:46.989Z,98656.06
2018-01-23T03:00:14.518Z,98656.73
2018-01-23T03:02:42.028Z,98657.36
2018-01-23T03:05:09.549Z,98655.50
2018-01-23T03:07:37.080Z,98669.13
2018-01-23T03:10:04.588Z,98682.76
2018-01-23T03:12:32.108Z,98688.86
2018-01-23T03:14:59.628Z,98680.97
2018-01-23T03:17:27.132Z,98681.59
2018-01-23T03:19:54.637Z,98689.39
2018-01-23T03:22:22.139Z,98691.59
2018-01-23T03:24:49.647Z,98679.43
2018-01-23T03:27:17.156Z,98681.67
2018-01-23T03:29:44.663Z,98688.08
2018-01-23T03:32:12.174Z,98686.03
2018-01-23T03:34:39.696Z,98695.23
2018-01-23T03:37:11.053Z,98691.77
2018-01-23T03:39:38.569Z,98700.52
2018-01-23T03:42:06.086Z,98689.05
2018-01-23T03:44:33.602Z,98686.48
2018-01-23T03:47:01.142Z,98685.14
2018-01-23T03:49:28.651Z,98674.16
2018-01-23T03:51:56.159Z,98680.25
2018-01-23T03:54:23.687Z,98690.45
2018-01-23T03:56:51.211Z,98684.42
2018-01-23T03:59:18.736Z,98694.27
2018-01-23T04:01:46.257Z,98705.81
2018-01-23T04:04:13.787Z,98701.34
2018-01-23T04:06:41.298Z,98708.45
2018-01-23T04:09:08.849Z,98713.45
2018-01-23T04:11:36.419Z,98718.73
2018-01-23T04:14:03.939Z,98721.84
2018-01-23T04:16:31.452Z,98719.33
2018-01-23T04:18:58.977Z,98718.59
2018-01-23T04:21:26.501Z,98722.64
2018-01-23T04:23:54.787Z,98720.14
2018-01-23T04:26:22.312Z,98721.86
2018-01-23T04:28:49.843Z,98716.61
2018-01-23T04:31:17.362Z,98728.00
2018-01-23T04:33:44.869Z,98733.81
2018-01-23T04:36:12.387Z,98736.05
2018-01-23T04:38:39.920Z,98741.94
2018-01-23T04:41:07.432Z,98747.19
2018-01-23T04:43:34.923Z,98742.72
2018-01-23T04:46:02.438Z,98750.94
2018-01-23T04:48:29.964Z,98754.45
2018-01-23T04:50:57.489Z,98751.31
2018-01-23T04:53:25.032Z,98747.98
2018-01-23T04:55:52.544Z,98746.45
2018-01-23T04:58:20.074Z,98749.50
2018-01-23T05:00:47.592Z,98755.84
2018-01-23T05:03:15.134Z,98758.70
2018-01-23T05:05:42.687Z,98769.59
2018-01-23T05:08:10.212Z,98769.11
2018-01-23T05:10:37.742Z,98779.78
2018-01-23T05:13:05.254Z,98776.55
2018-01-23T05:15:32.783Z,98777.84
2018-01-23T05:18:00.304Z,98779.06
2018-01-23T05:20:27.833Z,98779.70
2018-01-23T05:22:55.384Z,98783.06
2018-01-23T05:25:22.908Z,98784.36
2018-01-23T05:27:50.537Z,98780.19
2018-01-23T05:30:18.070Z,98781.25
2018-01-23T05:32:45.597Z,98782.33
2018-01-23T05:35:13.114Z,98781.18
2018-01-23T05:37:40.642Z,98787.95
2018-01-23T05:40:08.167Z,98784.66
2018-01-23T05:42:35.702Z,98791.73
2018-01-23T05:45:03.224Z,98792.62
2018-01-23T05:47:30.738Z,98795.41
2018-01-23T05:49:58.259Z,98793.54
2018-01-23T05:52:25.767Z,98799.27
2018-01-23T05:54:53.279Z,98799.78
2018-01-23T05:57:20.797Z,98799.63
2018-01-23T05:59:48.313Z,98803.16
2018-01-23T06:02:15.835Z,98804.48
2018-01-23T06:04:43.342Z,98813.75
2018-01-23T06:07:11.042Z,98817.23
2018-01-23T06:09:38.578Z,98823.12
2018-01-23T06:12:06.127Z,98832.55
2018-01-23T06:14:33.813Z,98832.15
2018-01-23T06:17:01.404Z,98837.77
2018-01-23T06:19:28.920Z,98845.95
2018-01-23T06:21:56.444Z,98846.33
2018-01-23T06:24:23.972Z,98841.59
2018-01-23T06:26:51.474Z,98852.25
2018-01-23T06:29:19.004Z,98853.28
2018-01-23T06:31:46.513Z,98864.47
2018-01-23T06:34:14.015Z,98856.58
2018-01-23T06:36:41.557Z,98869.36
2018-01-23T06:39:09.064Z,98874.36
2018-01-23T06:41:36.622Z,98884.61
2018-01-23T06:44:04.124Z,98887.09
2018-01-23T06:46:31.638Z,98887.17
2018-01-23T06:48:59.177Z,98890.06
2018-01-23T06:51:26.683Z,98893.10
2018-01-23T06:53:54.192Z,98899.33
2018-01-23T06:56:21.729Z,98893.73
2018-01-23T06:58:49.277Z,98897.13
2018-01-23T07:01:16.802Z,98902.03
2018-01-23T07:03:44.314Z,98911.72
2018-01-23T07:06:11.853Z,98913.97
2018-01-23T07:08:39.354Z,98922.92
2018-01-23T07:11:06.870Z,98918.36
2018-01-23T07:13:34.399Z,98925.23
2018-01-23T07:16:01.931Z,98931.02
2018-01-23T07:18:29.465Z,98936.16
2018-01-23T07:20:57.000Z,98941.97
2018-01-23T07:23:24.768Z,98950.72
2018-01-23T07:25:52.317Z,98951.61
2018-01-23T07:28:19.832Z,98947.77
2018-01-23T07:30:47.356Z,98959.50
2018-01-23T07:33:14.875Z,98961.58
2018-01-23T07:35:42.399Z,98958.59
2018-01-23T07:38:10.023Z,98958.00
2018-01-23T07:40:37.550Z,98959.87
2018-01-23T07:43:05.063Z,98957.83
2018-01-23T07:45:32.602Z,98965.13
2018-01-23T07:48:00.134Z,98966.11
2018-01-23T07:50:27.677Z,98970.31
2018-01-23T07:52:55.199Z,98971.76
2018-01-23T07:55:22.702Z,98969.08
2018-01-23T07:57:50.583Z,98971.77
2018-01-23T08:00:19.544Z,98981.09
2018-01-23T08:02:47.070Z,98985.82
2018-01-23T08:05:14.580Z,98993.17
2018-01-23T08:07:42.100Z,98991.22
2018-01-23T08:10:09.628Z,98993.30
2018-01-23T08:12:37.153Z,98989.98
2018-01-23T08:15:04.667Z,98995.05
2018-01-23T08:17:32.172Z,98998.55
2018-01-23T08:19:59.684Z,99000.73
2018-01-23T08:22:27.194Z,99005.02
2018-01-23T08:24:54.779Z,98999.00
2018-01-23T08:27:22.293Z,98999.36
2018-01-23T08:29:49.838Z,99001.72
2018-01-23T08:32:17.352Z,99006.97
2018-01-23T08:34:44.880Z,99010.80
2018-01-23T08:37:12.398Z,99008.53
2018-01-23T08:39:39.934Z,99006.88
2018-01-23T08:42:07.458Z,99005.65
2018-01-23T08:44:34.982Z,99014.52
2018-01-23T08:47:02.500Z,99019.50
2018-01-23T08:49:30.119Z,99008.80
2018-01-23T08:51:57.642Z,99012.00
2018-01-23T08:54:25.383Z,99017.77
2018-01-23T08:56:52.910Z,99021.48
2018-01-23T08:59:20.442Z,99023.83
2018-01-23T09:01:47.969Z,99025.55
2018-01-23T09:04:15.597Z,99034.84
2018-01-23T09:06:51.659Z,99036.88
2018-01-23T09:09:19.158Z,99033.17
2018-01-23T09:11:46.683Z,99034.39
2018-01-23T09:14:14.194Z,99038.95
2018-01-23T09:16:41.709Z,99039.44
2018-01-23T09:19:09.219Z,99047.27
2018-01-23T09:21:36.700Z,99050.69
2018-01-23T09:24:04.218Z,99057.72
2018-01-23T09:26:31.735Z,99062.22
2018-01-23T09:28:59.243Z,99063.64
2018-01-23T09:31:26.769Z,99059.78
2018-01-23T09:33:54.265Z,99066.41
2018-01-23T09:36:21.789Z,99070.12
2018-01-23T09:38:49.324Z,99071.02
2018-01-23T09:41:16.899Z,99078.21
2018-01-23T09:43:44.424Z,99081.17
2018-01-23T09:46:11.939Z,99085.12
2018-01-23T09:48:39.577Z,99090.81
2018-01-23T09:51:07.089Z,99091.14
2018-01-23T09:53:34.609Z,99097.20
2018-01-23T09:56:02.108Z,99097.84
2018-01-23T09:58:29.634Z,99098.53
2018-01-23T10:00:57.150Z,99099.53
2018-01-23T10:03:24.685Z,99103.55
2018-01-23T10:05:52.209Z,99108.54
2018-01-23T10:08:19.748Z,99107.75
2018-01-23T10:10:47.273Z,99106.75
2018-01-23T10:13:14.802Z,99105.77
2018-01-23T10:15:42.308Z,99103.63
2018-01-23T10:18:09.825Z,99100.91
2018-01-23T10:20:37.352Z,99101.09
2018-01-23T10:23:04.874Z,99098.86
2018-01-23T10:25:32.379Z,99095.27
2018-01-23T10:27:59.897Z,99095.77
2018-01-23T10:30:27.414Z,99097.23
2018-01-23T10:32:54.980Z,99095.63
2018-01-23T10:35:22.522Z,99095.64
2018-01-23T10:37:50.038Z,99101.35
2018-01-23T10:40:17.569Z,99092.48
2018-01-23T10:42:45.085Z,99092.97
2018-01-23T10:45:12.623Z,99098.30
2018-01-23T10:47:40.153Z,99095.20
2018-01-23T10:50:07.669Z,99090.47
2018-01-23T10:52:35.189Z,99093.45
2018-01-23T10:55:02.705Z,99096.73
2018-01-23T10:57:30.429Z,99094.30
2018-01-23T10:59:57.944Z,99099.74
2018-01-23T11:02:25.478Z,99102.11
2018-01-23T11:04:53.014Z,99094.23
2018-01-23T11:07:20.508Z,99083.86
2018-01-23T11:09:48.074Z,99089.20
2018-01-23T11:12:15.589Z,99093.86
2018-01-23T11:14:43.134Z,99091.51
2018-01-23T11:17:10.648Z,99085.58
2018-01-23T11:19:38.173Z,99084.48
2018-01-23T11:22:05.697Z,99080.31
2018-01-23T11:24:33.604Z,99084.95
2018-01-23T11:27:01.138Z,99085.58
2018-01-23T11:29:28.679Z,99082.76
2018-01-23T11:31:56.200Z,99078.11
2018-01-23T11:34:23.728Z,99072.18
2018-01-23T11:36:51.244Z,99076.00
2018-01-23T11:39:18.801Z,99070.49
2018-01-23T11:41:46.273Z,99065.74
2018-01-23T11:44:13.767Z,99064.05
2018-01-23T11:46:41.315Z,99058.86
2018-01-23T11:49:08.848Z,99061.48
2018-01-23T11:51:36.395Z,99057.75
2018-01-23T11:54:03.915Z,99048.63
2018-01-23T11:56:31.454Z,99042.50
2018-01-23T11:58:58.984Z,99034.64
2018-01-23T12:01:26.520Z,99037.38
2018-01-23T12:03:54.110Z,99040.16
2018-01-23T12:06:21.655Z,99037.25
2018-01-23T12:08:49.182Z,99032.00
2018-01-23T12:11:16.786Z,99029.92
2018-01-23T12:13:44.319Z,99028.41
2018-01-23T12:16:11.828Z,99031.39
2018-01-23T12:18:39.334Z,99027.38
2018-01-23T12:21:06.883Z,99034.67
2018-01-23T12:23:34.402Z,99034.04
2018-01-23T12:26:01.929Z,99030.31
2018-01-23T12:28:29.479Z,99033.44
2018-01-23T12:30:56.980Z,99019.05
2018-01-23T12:33:24.500Z,99015.28
2018-01-23T12:35:52.015Z,99008.80
2018-01-23T12:38:19.524Z,99014.34
2018-01-23T12:40:47.061Z,99010.14
2018-01-23T12:43:14.602Z,99007.77
2018-01-23T12:45:42.134Z,99008.28
2018-01-23T12:48:09.659Z,99010.16
2018-01-23T12:50:37.174Z,99010.55
2018-01-23T12:53:04.712Z,99009.16
2018-01-23T12:55:32.223Z,99004.06
2018-01-23T12:57:59.755Z,99004.83
2018-01-23T13:00:27.303Z,99016.38
2018-01-23T13:02:54.849Z,99007.39
2018-01-23T13:05:22.445Z,99011.39
2018-01-23T13:07:49.958Z,99005.84
2018-01-23T13:10:17.479Z,99004.11
2018-01-23T13:12:45.024Z,99005.16
2018-01-23T13:15:12.574Z,99001.70
2018-01-23T13:17:40.106Z,99002.30
2018-01-23T13:20:07.620Z,99003.86
2018-01-23T13:22:35.131Z,98994.17
2018-01-23T13:25:02.669Z,98994.98
2018-01-23T13:27:30.186Z,98990.36
2018-01-23T13:29:57.709Z,98992.18
2018-01-23T13:32:25.217Z,98989.77
2018-01-23T13:34:52.719Z,98990.47
2018-01-23T13:37:20.219Z,98987.20
2018-01-23T13:39:47.734Z,98992.84
2018-01-23T13:42:15.245Z,98990.13
2018-01-23T13:44:42.757Z,98989.67
2018-01-23T13:47:10.279Z,98982.98
2018-01-23T13:49:37.800Z,98993.27
2018-01-23T13:52:05.329Z,98986.38
2018-01-23T13:54:32.840Z,98985.13
2018-01-23T13:57:00.345Z,98988.16
2018-01-23T13:59:27.854Z,98992.05
2018-01-23T14:01:55.389Z,98996.42
2018-01-23T14:04:22.904Z,98995.39
2018-01-23T14:06:50.444Z,98996.87
2018-01-23T14:09:17.964Z,98995.45
2018-01-23T14:11:45.475Z,98990.42
2018-01-23T14:14:12.990Z,98995.83
2018-01-23T14:16:40.669Z,98992.31
2018-01-23T14:19:08.189Z,98996.74
2018-01-23T14:21:35.722Z,98994.98
2018-01-23T14:24:03.243Z,99001.45
2018-01-23T14:26:30.810Z,98996.45
2018-01-23T14:28:58.382Z,98996.98
2018-01-23T14:31:25.944Z,98995.27
2018-01-23T14:33:53.482Z,98997.94
2018-01-23T14:36:20.996Z,98998.20
2018-01-23T14:38:48.513Z,98994.87
2018-01-23T14:41:16.043Z,99002.87
2018-01-23T14:43:43.588Z,99007.30
2018-01-23T14:46:11.121Z,99004.19
2018-01-23T14:48:38.676Z,99006.52
2018-01-23T14:51:06.179Z,99007.82
2018-01-23T14:53:33.718Z,99010.49
2018-01-23T14:56:01.251Z,99011.12
2018-01-23T14:58:28.758Z,99014.21
2018-01-23T15:00:56.405Z,99017.18
2018-01-23T15:03:23.942Z,99009.13
2018-01-23T15:05:51.706Z,99014.91
2018-01-23T15:08:19.242Z,99010.23
2018-01-23T15:10:46.879Z,99004.02
2018-01-23T15:13:14.419Z,99007.05
2018-01-23T15:15:41.933Z,99008.70
2018-01-23T15:18:09.470Z,99016.22
2018-01-23T15:20:36.998Z,99017.06
2018-01-23T15:23:04.534Z,99026.98
2018-01-23T15:25:32.056Z,99024.39
2018-01-23T15:27:59.596Z,99022.86
2018-01-23T15:30:27.175Z,99023.81
2018-01-23T15:32:54.705Z,99022.31
2018-01-23T15:35:22.277Z,99020.05
2018-01-23T15:37:49.788Z,99021.38
2018-01-23T15:40:17.338Z,99024.59
2018-01-23T15:42:44.852Z,99024.14
2018-01-23T15:45:12.375Z,99022.31
2018-01-23T15:47:39.915Z,99029.14
2018-01-23T15:50:07.459Z,99033.19
2018-01-23T15:52:34.966Z,99034.30
2018-01-23T15:55:02.484Z,99030.70
2018-01-23T15:57:30.031Z,99032.37
2018-01-23T15:59:57.569Z,99026.52
2018-01-23T16:02:25.086Z,99023.10
2018-01-23T16:04:52.605Z,99030.34
2018-01-23T16:07:20.234Z,99021.86
2018-01-23T16:09:47.793Z,99023.05
2018-01-23T16:12:15.315Z,99024.36
2018-01-23T16:14:42.861Z,99023.08
2018-01-23T16:17:10.369Z,99028.09
2018-01-23T16:19:37.908Z,99035.83
2018-01-23T16:22:05.430Z,99030.61
2018-01-23T16:24:32.937Z,99027.82
2018-01-23T16:27:00.454Z,99027.97
2018-01-23T16:29:27.974Z,99023.02
2018-01-23T16:31:55.498Z,99030.27
2018-01-23T16:34:22.999Z,99024.41
2018-01-23T16:36:50.521Z,99030.01
2018-01-23T16:39:18.055Z,99022.68
2018-01-23T16:41:45.593Z,99024.53
2018-01-23T16:44:13.129Z,99018.09
2018-01-23T16:46:40.670Z,99020.56
2018-01-23T16:49:08.330Z,99022.71
2018-01-23T16:51:35.850Z,99023.48
2018-01-23T16:54:03.395Z,99024.50
2018-01-23T16:56:30.996Z,99019.36
2018-01-23T16:58:58.530Z,99017.48
2018-01-23T17:01:26.070Z,99016.33
2018-01-23T17:03:53.620Z,99022.92
2018-01-23T17:06:21.143Z,99020.78
2018-01-23T17:08:48.681Z,99022.48
2018-01-23T17:11:16.214Z,99021.06
2018-01-23T17:13:43.760Z,99016.42
2018-01-23T17:16:11.281Z,99013.93
2018-01-23T17:18:38.796Z,99016.89
2018-01-23T17:21:06.326Z,99017.91
2018-01-23T17:23:33.854Z,99018.48
2018-01-23T17:26:01.365Z,99015.11
2018-01-23T17:28:29.284Z,99013.50
2018-01-23T17:30:57.241Z,99018.77
2018-01-23T17:33:25.220Z,99016.52
2018-01-23T17:35:53.180Z,99018.89
2018-01-23T17:38:21.050Z,99024.11
2018-01-23T17:40:49.016Z,99012.10
2018-01-23T17:43:16.991Z,99019.73
2018-01-23T17:45:44.827Z,99015.70
2018-01-23T17:48:12.829Z,99018.98
2018-01-23T17:50:40.690Z,99004.31
2018-01-23T17:53:08.560Z,99020.25
2018-01-23T17:55:36.525Z,99015.51
2018-01-23T17:58:04.387Z,99013.22
2018-01-23T18:00:36.154Z,99012.54
2018-01-23T18:03:04.125Z,99014.00
2018-01-23T18:05:31.985Z,99016.80
2018-01-23T18:07:59.853Z,99016.38
2018-01-23T18:10:27.721Z,99019.72
2018-01-23T18:12:55.589Z,99017.05
2018-01-23T18:15:23.314Z,99018.02
2018-01-23T18:17:51.001Z,99029.17
2018-01-23T18:20:18.611Z,99022.89
2018-01-23T18:22:46.156Z,99022.45
2018-01-23T18:25:13.684Z,99011.17
2018-01-23T18:27:41.198Z,99017.75
2018-01-23T18:30:08.746Z,99022.03
2018-01-23T18:32:36.294Z,99020.31
2018-01-23T18:35:03.865Z,99013.05
2018-01-23T18:37:31.419Z,99026.98
2018-01-23T18:39:58.962Z,99025.58
2018-01-23T18:42:26.499Z,99023.55
2018-01-23T18:44:54.152Z,99026.84
2018-01-23T18:47:22.036Z,99023.42
2018-01-23T18:49:49.691Z,99018.94
2018-01-23T18:52:17.508Z,99021.70
2018-01-23T18:54:45.534Z,99017.46
2018-01-23T18:57:13.491Z,99012.00
2018-01-23T18:59:41.339Z,99010.77
2018-01-23T19:02:09.125Z,99008.54
2018-01-23T19:04:36.996Z,99000.66
2018-01-23T19:07:04.965Z,99002.17
2018-01-23T19:09:32.830Z,99001.41
2018-01-23T19:12:00.695Z,99010.07
2018-01-23T19:14:28.531Z,99001.91
2018-01-23T19:16:56.429Z,99008.17
2018-01-23T19:19:24.297Z,99004.33
2018-01-23T19:21:52.171Z,99003.31
2018-01-23T19:24:19.901Z,99007.60
2018-01-23T19:26:47.464Z,99013.11
2018-01-23T19:29:15.011Z,99025.79
2018-01-23T19:31:42.554Z,99030.80
2018-01-23T19:34:10.076Z,99030.56
2018-01-23T19:36:37.595Z,99022.22
2018-01-23T19:39:05.127Z,99025.81
2018-01-23T19:41:32.651Z,99031.23
2018-01-23T19:44:00.205Z,99027.66
2018-01-23T19:46:27.770Z,99033.37
2018-01-23T19:48:55.321Z,99034.97
2018-01-23T19:51:22.875Z,99027.41
2018-01-23T19:53:50.442Z,99035.19
2018-01-23T19:56:17.975Z,99035.33
2018-01-23T19:58:45.491Z,99025.87
2018-01-23T20:01:13.139Z,99029.56
2018-01-23T20:03:40.679Z,99017.64
2018-01-23T20:06:08.367Z,99017.51
2018-01-23T20:08:35.891Z,99020.87
2018-01-23T20:11:03.431Z,99017.20
2018-01-23T20:13:31.194Z,99018.80
2018-01-23T20:15:58.730Z,99023.42
2018-01-23T20:18:26.290Z,99020.55
2018-01-23T20:20:53.804Z,99022.50
2018-01-23T20:23:21.361Z,99018.01
2018-01-23T20:25:48.895Z,99014.89
2018-01-23T20:28:16.421Z,99008.32
2018-01-23T20:30:43.954Z,99003.31
2018-01-23T20:33:11.505Z,99002.33
2018-01-23T20:35:39.065Z,98999.61
2018-01-23T20:38:06.620Z,98996.94
2018-01-23T20:40:34.266Z,98987.04
2018-01-23T20:43:01.794Z,98980.04
2018-01-23T20:45:29.375Z,98976.80
2018-01-23T20:47:56.909Z,98979.14
2018-01-23T20:50:24.461Z,98978.80
2018-01-23T20:52:52.004Z,98983.20
2018-01-23T20:55:19.540Z,98993.74
2018-01-23T20:57:47.091Z,98990.72
2018-01-23T21:00:14.640Z,98986.80
2018-01-23T21:02:42.511Z,98990.23
2018-01-23T21:05:10.040Z,98991.46
2018-01-23T21:07:37.585Z,98982.75
2018-01-23T21:10:05.159Z,98984.83
2018-01-23T21:12:32.664Z,98975.30
2018-01-23T21:15:00.273Z,98983.20
2018-01-23T21:17:27.802Z,98981.73
2018-01-23T21:19:55.325Z,98986.81
2018-01-23T21:22:22.854Z,98984.05
2018-01-23T21:24:50.369Z,98986.23
2018-01-23T21:27:17.902Z,98981.20
2018-01-23T21:29:45.418Z,98981.99
2018-01-23T21:32:12.950Z,98978.53
2018-01-23T21:34:40.571Z,98977.40
2018-01-23T21:37:08.116Z,98982.73
2018-01-23T21:39:35.775Z,98993.17
2018-01-23T21:42:03.323Z,98998.59
2018-01-23T21:44:30.850Z,98998.88
2018-01-23T21:46:58.381Z,98993.41
2018-01-23T21:49:25.905Z,99001.08
2018-01-23T21:51:53.411Z,98998.81
2018-01-23T21:54:20.973Z,99003.50
2018-01-23T21:56:48.506Z,99006.48
2018-01-23T21:59:16.059Z,98998.16
2018-01-23T22:01:43.590Z,98998.80
2018-01-23T22:04:11.100Z,98994.86
2018-01-23T22:06:38.845Z,98997.22
2018-01-23T22:09:06.385Z,99006.78
2018-01-23T22:11:33.911Z,99007.47
2018-01-23T22:14:01.455Z,99010.52
2018-01-23T22:16:28.979Z,99007.34
2018-01-23T22:18:56.474Z,99017.36
2018-01-23T22:21:23.985Z,99017.56
2018-01-23T22:23:51.495Z,99021.41
2018-01-23T22:26:19.135Z,99033.53
2018-01-23T22:28:46.671Z,99028.14
2018-01-23T22:31:14.190Z,99023.83
2018-01-23T22:33:41.744Z,99031.57
2018-01-23T22:36:09.270Z,99027.68
2018-01-23T22:38:36.796Z,99026.75
2018-01-23T22:41:04.316Z,99038.91
2018-01-23T22:43:31.851Z,99037.61
2018-01-23T22:45:59.421Z,99044.89
2018-01-23T22:48:26.954Z,99048.78
2018-01-23T22:50:54.478Z,99048.39
2018-01-23T22:53:22.004Z,99044.70
2018-01-23T22:55:49.721Z,99037.47
2018-01-23T22:58:17.384Z,99042.21
2018-01-23T23:00:44.886Z,99035.84
2018-01-23T23:03:12.410Z,99044.89
2018-01-23T23:05:39.919Z,99046.29
2018-01-23T23:08:07.474Z,99040.72
2018-01-23T23:10:35.010Z,99044.98
2018-01-23T23:13:02.530Z,99051.05
2018-01-23T23:15:30.035Z,99052.70
2018-01-23T23:17:57.556Z,99056.80
2018-01-23T23:20:25.075Z,99050.89
2018-01-23T23:22:52.586Z,99048.86
2018-01-23T23:25:20.108Z,99041.67
2018-01-23T23:27:47.636Z,99035.66
2018-01-23T23:30:15.160Z,99038.41
2018-01-23T23:32:42.701Z,99036.75
2018-01-23T23:35:10.211Z,99037.73
2018-01-23T23:37:37.724Z,99025.66
2018-01-23T23:40:05.279Z,99037.73
2018-01-23T23:42:32.820Z,99034.58
2018-01-23T23:45:00.334Z,99030.41
2018-01-23T23:47:27.846Z,99027.56
2018-01-23T23:49:55.379Z,99021.84
2018-01-23T23:52:23.896Z,99022.92
2018-01-23T23:54:51.399Z,99020.86
2018-01-23T23:57:18.921Z,99024.78
2018-01-23T23:59:46.441Z,99017.78
